createdAt,value
2018-11-14T00:00:09.054Z,8.22
2018-11-14T00:02:37.519Z,8.29
2018-11-14T00:05:06.443Z,8.30
2018-11-14T00:07:34.699Z,8.36
2018-11-14T00:10:03.135Z,8.39
2018-11-14T00:12:31.031Z,8.46
2018-11-14T00:14:58.813Z,8.54
2018-11-14T00:17:26.552Z,8.58
2018-11-14T00:19:54.638Z,8.62
2018-11-14T00:22:22.123Z,8.64
2018-11-14T00:24:49.919Z,8.68
2018-11-14T00:27:17.712Z,8.80
2018-11-14T00:29:45.507Z,8.91
2018-11-14T00:32:13.223Z,9.05
2018-11-14T00:34:41.010Z,9.13
2018-11-14T00:37:09.534Z,9.23
2018-11-14T00:39:37.502Z,9.31
2018-11-14T00:42:05.935Z,9.38
2018-11-14T00:44:34.132Z,9.40
2018-11-14T00:47:02.374Z,9.33
2018-11-14T00:49:30.713Z,9.40
2018-11-14T00:51:58.758Z,9.53
2018-11-14T00:54:26.994Z,9.55
2018-11-14T00:56:55.075Z,9.57
2018-11-14T00:59:23.208Z,9.54
2018-11-14T01:01:51.445Z,9.45
2018-11-14T01:04:20.575Z,9.37
2018-11-14T01:06:48.871Z,9.29
2018-11-14T01:09:17.276Z,9.14
2018-11-14T01:11:45.656Z,9.03
2018-11-14T01:14:13.860Z,8.98
2018-11-14T01:16:42.111Z,8.93
2018-11-14T01:19:10.575Z,8.89
2018-11-14T01:21:38.819Z,8.84
2018-11-14T01:24:07.476Z,8.84
2018-11-14T01:26:35.619Z,8.87
2018-11-14T01:29:03.722Z,8.96
2018-11-14T01:31:32.194Z,8.92
2018-11-14T01:34:00.525Z,9.08
2018-11-14T01:36:28.948Z,9.14
2018-11-14T01:38:56.948Z,9.19
2018-11-14T01:41:24.900Z,9.18
2018-11-14T01:43:53.237Z,9.14
2018-11-14T01:46:21.373Z,9.12
2018-11-14T01:48:49.325Z,9.07
2018-11-14T01:51:17.488Z,8.97
2018-11-14T01:53:45.790Z,8.65
2018-11-14T01:56:13.667Z,8.83
2018-11-14T01:58:41.571Z,8.59
2018-11-14T02:01:10.036Z,8.63
2018-11-14T02:03:38.359Z,8.48
2018-11-14T02:06:06.716Z,8.57
2018-11-14T02:08:34.807Z,8.77
2018-11-14T02:11:02.955Z,8.72
2018-11-14T02:13:31.254Z,8.59
2018-11-14T02:15:59.451Z,8.65
2018-11-14T02:18:27.578Z,8.51
2018-11-14T02:20:55.818Z,8.50
2018-11-14T02:23:23.914Z,8.52
2018-11-14T02:25:52.352Z,8.23
2018-11-14T02:28:20.375Z,7.99
2018-11-14T02:30:48.560Z,8.03
2018-11-14T02:33:16.782Z,8.23
2018-11-14T02:35:45.143Z,8.01
2018-11-14T02:38:13.548Z,8.13
2018-11-14T02:40:41.620Z,7.90
2018-11-14T02:43:10.149Z,7.98
2018-11-14T02:45:38.338Z,8.16
2018-11-14T02:48:06.544Z,8.32
2018-11-14T02:50:34.975Z,8.37
2018-11-14T02:53:03.292Z,8.48
2018-11-14T02:55:31.495Z,8.65
2018-11-14T02:57:59.766Z,8.43
2018-11-14T03:00:28.068Z,8.38
2018-11-14T03:02:56.267Z,8.24
2018-11-14T03:05:24.623Z,8.11
2018-11-14T03:07:52.855Z,8.13
2018-11-14T03:10:21.733Z,8.15
2018-11-14T03:12:50.087Z,8.23
2018-11-14T03:15:21.352Z,8.16
2018-11-14T03:17:49.671Z,8.24
2018-11-14T03:20:19.182Z,8.38
2018-11-14T03:22:47.243Z,8.46
2018-11-14T03:25:15.720Z,8.58
2018-11-14T03:27:43.779Z,8.33
2018-11-14T03:30:14.465Z,8.63
2018-11-14T03:32:43.083Z,8.75
2018-11-14T03:35:12.144Z,8.85
2018-11-14T03:37:40.160Z,8.90
2018-11-14T03:40:09.941Z,8.71
2018-11-14T03:42:38.207Z,8.87
2018-11-14T03:45:07.743Z,8.90
2018-11-14T03:47:36.004Z,9.03
2018-11-14T03:50:04.623Z,9.13
2018-11-14T03:52:32.871Z,9.10
2018-11-14T03:55:01.229Z,9.21
2018-11-14T03:57:29.494Z,9.23
2018-11-14T03:59:57.748Z,9.30
2018-11-14T04:02:25.979Z,9.32
2018-11-14T04:04:54.088Z,9.19
2018-11-14T04:07:22.322Z,9.22
2018-11-14T04:09:50.399Z,9.29
2018-11-14T04:12:18.478Z,9.44
2018-11-14T04:14:46.967Z,9.40
2018-11-14T04:17:14.727Z,9.46
2018-11-14T04:19:42.494Z,9.50
2018-11-14T04:22:10.261Z,9.37
2018-11-14T04:24:38.492Z,9.28
2018-11-14T04:27:06.676Z,9.29
2018-11-14T04:29:34.803Z,9.29
2018-11-14T04:32:03.326Z,9.18
2018-11-14T04:34:31.485Z,8.78
2018-11-14T04:36:59.632Z,8.55
2018-11-14T04:39:27.907Z,8.77
2018-11-14T04:41:56.167Z,8.96
2018-11-14T04:44:24.688Z,8.97
2018-11-14T04:46:53.021Z,9.18
2018-11-14T04:49:21.436Z,9.31
2018-11-14T04:51:49.662Z,9.46
2018-11-14T04:54:18.045Z,9.56
2018-11-14T04:56:46.261Z,9.57
2018-11-14T04:59:14.693Z,9.64
2018-11-14T05:01:42.471Z,9.63
2018-11-14T05:04:10.572Z,9.68
2018-11-14T05:06:38.902Z,9.70
2018-11-14T05:09:08.678Z,9.69
2018-11-14T05:11:36.736Z,9.81
2018-11-14T05:14:05.411Z,9.87
2018-11-14T05:16:33.767Z,10.02
2018-11-14T05:19:02.056Z,10.13
2018-11-14T05:21:30.315Z,10.03
2018-11-14T05:23:58.875Z,9.98
2018-11-14T05:26:26.982Z,9.73
2018-11-14T05:28:55.283Z,9.93
2018-11-14T05:31:23.635Z,10.13
2018-11-14T05:33:51.815Z,10.14
2018-11-14T05:36:20.176Z,10.39
2018-11-14T05:38:48.639Z,10.53
2018-11-14T05:41:17.014Z,10.47
2018-11-14T05:43:45.348Z,10.32
2018-11-14T05:46:13.860Z,10.23
2018-11-14T05:48:42.071Z,10.39
2018-11-14T05:51:10.571Z,10.48
2018-11-14T05:53:38.814Z,10.35
2018-11-14T05:56:07.508Z,10.58
2018-11-14T05:58:35.807Z,10.53
2018-11-14T06:01:04.104Z,10.48
2018-11-14T06:03:32.332Z,10.60
2018-11-14T06:06:00.825Z,10.77
2018-11-14T06:08:29.143Z,10.65
2018-11-14T06:10:57.574Z,10.73
2018-11-14T06:13:25.888Z,10.88
2018-11-14T06:15:54.187Z,11.11
2018-11-14T06:18:22.375Z,10.80
2018-11-14T06:20:50.459Z,11.08
2018-11-14T06:23:18.646Z,11.31
2018-11-14T06:25:46.994Z,11.42
2018-11-14T06:28:15.078Z,11.19
2018-11-14T06:30:43.584Z,10.93
2018-11-14T06:33:12.009Z,11.18
2018-11-14T06:35:40.339Z,11.30
2018-11-14T06:38:08.607Z,10.99
2018-11-14T06:40:37.101Z,11.02
2018-11-14T06:43:05.375Z,11.31
2018-11-14T06:45:34.312Z,11.40
2018-11-14T06:48:03.016Z,11.09
2018-11-14T06:50:31.232Z,11.26
2018-11-14T06:53:00.995Z,11.55
2018-11-14T06:55:29.443Z,11.48
2018-11-14T06:57:57.681Z,11.29
2018-11-14T07:00:29.150Z,11.26
2018-11-14T07:02:58.017Z,11.38
2018-11-14T07:05:26.476Z,11.20
2018-11-14T07:07:54.945Z,11.15
2018-11-14T07:10:27.543Z,11.42
2018-11-14T07:13:12.923Z,11.64
2018-11-14T07:15:42.143Z,11.54
2018-11-14T07:18:11.196Z,11.41
2018-11-14T07:20:40.966Z,11.56
2018-11-14T07:23:09.351Z,11.51
2018-11-14T07:25:37.602Z,11.86
2018-11-14T07:28:06.143Z,11.60
2018-11-14T07:30:34.683Z,11.90
2018-11-14T07:33:05.095Z,11.40
2018-11-14T07:35:33.385Z,11.51
2018-11-14T07:39:07.706Z,11.59
2018-11-14T07:41:38.326Z,11.35
2018-11-14T07:44:06.534Z,10.75
2018-11-14T07:46:35.155Z,10.80
2018-11-14T07:49:03.691Z,10.70
2018-11-14T07:51:31.998Z,11.14
2018-11-14T07:54:00.184Z,11.16
2018-11-14T07:56:28.672Z,11.62
2018-11-14T07:58:57.091Z,12.04
2018-11-14T08:01:25.129Z,11.94
2018-11-14T08:03:53.422Z,12.17
2018-11-14T08:06:21.727Z,11.95
2018-11-14T08:08:49.936Z,11.75
2018-11-14T08:11:18.291Z,12.11
2018-11-14T08:13:47.687Z,12.13
2018-11-14T08:16:15.850Z,12.24
2018-11-14T08:18:44.321Z,12.00
2018-11-14T08:21:12.618Z,12.08
2018-11-14T08:23:41.100Z,12.05
2018-11-14T08:26:09.603Z,12.08
2018-11-14T08:28:38.011Z,11.95
2018-11-14T08:31:06.388Z,12.12
2018-11-14T08:33:34.800Z,11.84
2018-11-14T08:36:03.096Z,11.74
2018-11-14T08:38:31.425Z,12.05
2018-11-14T08:40:59.914Z,12.49
2018-11-14T08:43:27.865Z,12.48
2018-11-14T08:45:56.362Z,12.38
2018-11-14T08:48:24.622Z,12.65
2018-11-14T08:50:53.071Z,12.74
2018-11-14T08:53:21.385Z,12.32
2018-11-14T08:55:49.890Z,12.99
2018-11-14T08:58:18.110Z,13.38
2018-11-14T09:00:46.220Z,13.37
2018-11-14T09:03:14.810Z,13.50
2018-11-14T09:05:43.191Z,13.48
2018-11-14T09:08:11.459Z,13.93
2018-11-14T09:10:39.754Z,13.89
2018-11-14T09:13:13.053Z,14.00
2018-11-14T09:15:41.303Z,14.32
2018-11-14T09:18:09.472Z,14.62
2018-11-14T09:20:37.974Z,14.82
2018-11-14T09:23:06.384Z,14.57
2018-11-14T09:25:34.316Z,14.53
2018-11-14T09:28:02.443Z,13.78
2018-11-14T09:30:30.510Z,13.33
2018-11-14T09:32:59.012Z,13.91
2018-11-14T09:35:27.734Z,14.26
2018-11-14T09:37:56.862Z,14.39
2018-11-14T09:40:26.101Z,13.69
2018-11-14T09:42:54.307Z,13.31
2018-11-14T09:45:24.178Z,13.05
2018-11-14T09:47:52.686Z,13.62
2018-11-14T09:50:22.386Z,13.61
2018-11-14T09:52:58.630Z,13.27
2018-11-14T09:55:26.934Z,13.28
2018-11-14T09:57:55.397Z,13.11
2018-11-14T10:00:27.669Z,13.07
2018-11-14T10:02:58.386Z,12.71
2018-11-14T10:05:26.649Z,13.28
2018-11-14T10:07:55.145Z,13.28
2018-11-14T10:10:23.621Z,13.58
2018-11-14T10:12:51.823Z,13.24
2018-11-14T10:15:21.385Z,13.73
2018-11-14T10:17:49.665Z,13.32
2018-11-14T10:20:19.115Z,13.33
2018-11-14T10:22:47.195Z,13.24
2018-11-14T10:25:16.000Z,13.56
2018-11-14T10:27:44.956Z,13.67
2018-11-14T10:30:16.918Z,13.00
2018-11-14T10:32:46.127Z,13.13
2018-11-14T10:35:14.475Z,13.16
2018-11-14T10:37:43.155Z,13.49
2018-11-14T10:40:13.472Z,13.94
2018-11-14T10:42:41.910Z,14.92
2018-11-14T10:45:11.362Z,15.72
2018-11-14T10:47:39.348Z,15.89
2018-11-14T10:50:09.326Z,15.35
2018-11-14T10:52:37.536Z,15.06
2018-11-14T10:55:06.207Z,15.60
2018-11-14T10:57:34.339Z,16.07
2018-11-14T11:00:02.120Z,15.89
2018-11-14T11:02:35.314Z,15.04
2018-11-14T11:05:09.202Z,15.56
2018-11-14T11:07:42.943Z,15.76
2018-11-14T11:10:16.816Z,16.08
2018-11-14T11:12:50.336Z,16.30
2018-11-14T11:16:25.939Z,16.84
2018-11-14T11:18:54.262Z,17.84
2018-11-14T11:21:22.164Z,18.03
2018-11-14T11:23:50.447Z,18.06
2018-11-14T11:26:18.808Z,17.76
2018-11-14T11:28:46.984Z,17.66
2018-11-14T11:31:15.504Z,17.05
2018-11-14T11:33:43.783Z,16.21
2018-11-14T11:36:12.024Z,15.76
2018-11-14T11:38:40.119Z,15.85
2018-11-14T11:41:08.578Z,15.49
2018-11-14T11:43:36.838Z,14.46
2018-11-14T11:46:05.271Z,14.58
2018-11-14T11:48:33.158Z,15.19
2018-11-14T11:51:00.959Z,14.62
2018-11-14T11:53:28.614Z,14.24
2018-11-14T11:55:56.399Z,15.10
2018-11-14T11:58:24.183Z,15.44
2018-11-14T12:00:52.000Z,15.63
2018-11-14T12:03:19.696Z,16.04
2018-11-14T12:05:47.426Z,16.48
2018-11-14T12:08:15.187Z,16.72
2018-11-14T12:10:43.054Z,16.80
2018-11-14T12:13:10.785Z,16.10
2018-11-14T12:15:38.563Z,15.91
2018-11-14T12:18:06.729Z,15.32
2018-11-14T12:20:34.440Z,15.10
2018-11-14T12:23:02.211Z,14.88
2018-11-14T12:25:29.908Z,15.22
2018-11-14T12:27:57.681Z,14.59
2018-11-14T12:30:25.568Z,14.58
2018-11-14T12:32:53.344Z,13.94
2018-11-14T12:35:21.127Z,14.37
2018-11-14T12:37:48.931Z,14.20
2018-11-14T12:40:16.611Z,14.11
2018-11-14T12:42:44.428Z,14.09
2018-11-14T12:45:13.664Z,14.12
2018-11-14T12:47:41.480Z,14.07
2018-11-14T12:50:10.346Z,14.13
2018-11-14T12:52:38.301Z,14.19
2018-11-14T12:55:07.842Z,14.29
2018-11-14T12:57:35.527Z,14.49
2018-11-14T13:00:03.571Z,14.87
2018-11-14T13:02:31.264Z,14.43
2018-11-14T13:04:59.151Z,14.85
2018-11-14T13:07:32.508Z,14.59
2018-11-14T13:10:00.356Z,14.30
2018-11-14T13:12:28.187Z,14.27
2018-11-14T13:14:56.029Z,14.57
2018-11-14T13:17:23.886Z,15.05
2018-11-14T13:19:51.710Z,14.97
2018-11-14T13:22:19.564Z,14.97
2018-11-14T13:24:47.667Z,14.76
2018-11-14T13:27:15.507Z,15.03
2018-11-14T13:29:43.356Z,15.12
2018-11-14T13:32:11.200Z,14.66
2018-11-14T13:34:39.026Z,14.57
2018-11-14T13:37:06.899Z,14.76
2018-11-14T13:39:34.722Z,15.00
2018-11-14T13:42:02.544Z,15.42
2018-11-14T13:44:30.424Z,15.24
2018-11-14T13:46:58.282Z,14.52
2018-11-14T13:49:26.305Z,15.16
2018-11-14T13:51:54.003Z,15.39
2018-11-14T13:54:21.842Z,14.78
2018-11-14T13:56:49.669Z,14.56
2018-11-14T13:59:17.584Z,14.21
2018-11-14T14:01:45.399Z,14.01
2018-11-14T14:04:13.214Z,13.56
2018-11-14T14:06:41.063Z,13.53
2018-11-14T14:09:10.541Z,13.74
2018-11-14T14:11:38.376Z,13.43
2018-11-14T14:14:12.447Z,13.41
2018-11-14T14:16:41.158Z,12.75
2018-11-14T14:19:09.208Z,12.67
2018-11-14T14:21:37.307Z,12.76
2018-11-14T14:24:05.483Z,12.66
2018-11-14T14:26:33.350Z,12.70
2018-11-14T14:29:01.210Z,12.70
2018-11-14T14:31:29.481Z,12.59
2018-11-14T14:33:57.327Z,12.68
2018-11-14T14:36:25.179Z,12.39
2018-11-14T14:38:53.010Z,12.47
2018-11-14T14:41:20.878Z,12.42
2018-11-14T14:43:49.082Z,12.56
2018-11-14T14:46:17.422Z,12.76
2018-11-14T14:48:45.775Z,12.76
2018-11-14T14:51:14.225Z,12.80
2018-11-14T14:53:42.512Z,12.82
2018-11-14T14:56:10.808Z,13.06
2018-11-14T14:58:39.256Z,12.72
2018-11-14T15:01:07.505Z,13.08
2018-11-14T15:03:36.078Z,13.23
2018-11-14T15:06:04.924Z,12.91
2018-11-14T15:08:33.180Z,13.19
2018-11-14T15:11:01.359Z,13.34
2018-11-14T15:13:29.923Z,13.13
2018-11-14T15:15:58.380Z,13.24
2018-11-14T15:18:26.667Z,13.10
2018-11-14T15:20:55.175Z,12.92
2018-11-14T15:23:23.459Z,12.95
2018-11-14T15:25:51.883Z,12.70
2018-11-14T15:28:20.281Z,12.64
2018-11-14T15:30:48.691Z,12.87
2018-11-14T15:33:16.864Z,13.02
2018-11-14T15:35:45.443Z,12.99
2018-11-14T15:38:13.896Z,12.97
2018-11-14T15:40:42.191Z,12.89
2018-11-14T15:43:10.684Z,12.95
2018-11-14T15:45:39.752Z,13.08
2018-11-14T15:48:07.948Z,13.22
2018-11-14T15:50:35.828Z,13.18
2018-11-14T15:53:03.938Z,13.20
2018-11-14T15:55:31.756Z,12.78
2018-11-14T15:57:59.629Z,12.89
2018-11-14T16:00:28.638Z,13.04
2018-11-14T16:02:56.588Z,12.94
2018-11-14T16:05:25.656Z,12.67
2018-11-14T16:07:54.691Z,12.90
2018-11-14T16:10:23.484Z,12.97
2018-11-14T16:12:51.345Z,12.91
2018-11-14T16:15:20.674Z,12.88
2018-11-14T16:17:48.533Z,12.79
2018-11-14T16:20:17.791Z,12.80
2018-11-14T16:22:45.615Z,12.93
2018-11-14T16:25:15.595Z,12.83
2018-11-14T16:27:44.315Z,13.00
2018-11-14T16:30:15.222Z,13.15
2018-11-14T16:32:44.072Z,13.38
2018-11-14T16:35:12.201Z,13.42
2018-11-14T16:37:40.455Z,13.43
2018-11-14T16:40:10.932Z,13.26
2018-11-14T16:42:39.202Z,13.24
2018-11-14T16:45:07.615Z,13.41
2018-11-14T16:47:35.601Z,13.46
2018-11-14T16:50:03.483Z,13.45
2018-11-14T16:52:31.406Z,13.39
2018-11-14T16:54:59.266Z,13.46
2018-11-14T16:57:27.498Z,13.50
2018-11-14T16:59:55.324Z,13.44
2018-11-14T17:02:23.227Z,13.37
2018-11-14T17:04:51.730Z,13.29
2018-11-14T17:07:22.284Z,13.26
2018-11-14T17:09:52.084Z,13.01
2018-11-14T17:12:21.029Z,12.85
2018-11-14T17:14:50.305Z,12.77
2018-11-14T17:17:19.696Z,13.00
2018-11-14T17:19:48.420Z,13.03
2018-11-14T17:22:17.778Z,12.98
2018-11-14T17:24:46.807Z,13.00
2018-11-14T17:27:15.782Z,12.85
2018-11-14T17:29:45.389Z,12.64
2018-11-14T17:32:13.706Z,12.60
2018-11-14T17:34:41.590Z,12.83
2018-11-14T17:37:11.583Z,12.84
2018-11-14T17:39:41.434Z,12.83
2018-11-14T17:42:10.884Z,12.83
2018-11-14T17:44:44.401Z,12.59
2018-11-14T17:47:14.703Z,12.46
2018-11-14T17:52:19.696Z,12.39
2018-11-14T17:54:50.843Z,12.48
2018-11-14T17:57:20.310Z,12.75
2018-11-14T17:59:54.168Z,12.87
2018-11-14T18:02:26.004Z,12.62
2018-11-14T18:04:56.725Z,12.74
2018-11-14T18:07:31.768Z,12.70
2018-11-14T18:10:03.726Z,12.36
2018-11-14T18:12:34.448Z,12.54
2018-11-14T18:15:08.650Z,12.70
2018-11-14T18:17:38.179Z,12.74
2018-11-14T18:20:07.797Z,12.56
2018-11-14T18:22:35.615Z,12.63
2018-11-14T18:25:03.519Z,12.72
2018-11-14T18:27:31.613Z,12.49
2018-11-14T18:30:04.092Z,12.48
2018-11-14T18:32:32.555Z,12.24
2018-11-14T18:35:00.307Z,12.34
2018-11-14T18:37:28.223Z,12.28
2018-11-14T18:39:56.000Z,12.20
2018-11-14T18:42:24.134Z,12.08
2018-11-14T18:44:51.965Z,12.09
2018-11-14T18:47:20.255Z,12.24
2018-11-14T18:49:48.029Z,12.21
2018-11-14T18:52:16.454Z,12.53
2018-11-14T18:54:44.731Z,12.83
2018-11-14T18:57:15.807Z,13.02
2018-11-14T18:59:47.286Z,13.22
2018-11-14T19:02:18.237Z,13.35
2018-11-14T19:04:46.445Z,13.40
2018-11-14T19:07:14.163Z,13.49
2018-11-14T19:09:42.205Z,13.57
2018-11-14T19:12:10.099Z,13.57
2018-11-14T19:14:37.936Z,13.50
2018-11-14T19:17:05.887Z,13.49
2018-11-14T19:19:33.756Z,13.49
2018-11-14T19:22:01.713Z,13.52
2018-11-14T19:24:29.596Z,13.50
2018-11-14T19:26:57.342Z,13.38
2018-11-14T19:29:25.115Z,13.36
2018-11-14T19:31:52.859Z,13.33
2018-11-14T19:34:20.587Z,13.45
2018-11-14T19:36:48.347Z,13.60
2018-11-14T19:39:16.111Z,13.59
2018-11-14T19:41:43.854Z,13.49
2018-11-14T19:44:12.137Z,13.41
2018-11-14T19:46:39.890Z,13.50
2018-11-14T19:49:07.618Z,13.55
2018-11-14T19:51:35.402Z,13.60
2018-11-14T19:54:03.188Z,13.66
2018-11-14T19:56:30.960Z,13.67
2018-11-14T19:58:58.735Z,13.57
2018-11-14T20:01:26.463Z,13.48
2018-11-14T20:03:54.225Z,13.46
2018-11-14T20:06:21.980Z,13.40
2018-11-14T20:08:50.333Z,13.29
2018-11-14T20:11:18.540Z,13.16
2018-11-14T20:13:46.933Z,13.29
2018-11-14T20:16:14.996Z,13.40
2018-11-14T20:18:43.460Z,13.33
2018-11-14T20:21:11.800Z,13.00
2018-11-14T20:23:40.319Z,13.04
2018-11-14T20:26:08.511Z,13.05
2018-11-14T20:28:36.665Z,13.12
2018-11-14T20:31:05.071Z,13.19
2018-11-14T20:33:33.356Z,13.26
2018-11-14T20:36:01.903Z,13.23
2018-11-14T20:38:30.066Z,13.20
2018-11-14T20:40:58.576Z,13.19
2018-11-14T20:43:26.661Z,13.25
2018-11-14T20:45:55.103Z,13.28
2018-11-14T20:48:23.399Z,13.19
2018-11-14T20:50:51.908Z,13.26
2018-11-14T20:53:20.157Z,13.27
2018-11-14T20:55:48.673Z,13.11
2018-11-14T20:58:16.955Z,12.97
2018-11-14T21:00:45.138Z,12.87
2018-11-14T21:03:13.318Z,12.78
2018-11-14T21:05:41.601Z,12.91
2018-11-14T21:08:09.968Z,12.84
2018-11-14T21:10:38.059Z,12.70
2018-11-14T21:13:06.403Z,12.84
2018-11-14T21:15:36.040Z,12.99
2018-11-14T21:18:04.429Z,12.76
2018-11-14T21:20:32.647Z,12.78
2018-11-14T21:23:01.178Z,12.70
2018-11-14T21:25:29.334Z,12.69
2018-11-14T21:27:57.855Z,12.72
2018-11-14T21:30:27.597Z,12.66
2018-11-14T21:32:55.867Z,12.67
2018-11-14T21:35:33.461Z,12.75
2018-11-14T21:38:03.245Z,12.54
2018-11-14T21:40:31.524Z,12.48
2018-11-14T21:43:00.067Z,12.52
2018-11-14T21:45:28.801Z,12.48
2018-11-14T21:48:02.729Z,12.54
2018-11-14T21:50:31.215Z,12.62
2018-11-14T21:52:59.000Z,12.81
2018-11-14T21:55:26.781Z,12.67
2018-11-14T21:57:54.535Z,12.55
2018-11-14T22:00:24.659Z,12.70
2018-11-14T22:02:53.687Z,12.76
2018-11-14T22:05:21.478Z,12.72
2018-11-14T22:07:49.310Z,12.82
2018-11-14T22:10:18.424Z,12.81
2018-11-14T22:12:46.778Z,12.84
2018-11-14T22:15:15.675Z,12.90
2018-11-14T22:17:43.576Z,12.79
2018-11-14T22:20:13.749Z,12.87
2018-11-14T22:22:42.231Z,12.99
2018-11-14T22:25:10.728Z,13.05
2018-11-14T22:27:38.530Z,13.11
2018-11-14T22:30:09.428Z,12.97
2018-11-14T22:32:37.194Z,12.93
2018-11-14T22:35:05.388Z,12.86
2018-11-14T22:37:33.175Z,12.90
2018-11-14T22:40:00.966Z,12.84
2018-11-14T22:42:28.731Z,12.81
2018-11-14T22:44:56.541Z,12.85
2018-11-14T22:47:25.068Z,12.72
2018-11-14T22:49:53.232Z,12.66
2018-11-14T22:52:21.330Z,12.60
2018-11-14T22:54:49.638Z,12.62
2018-11-14T22:57:18.108Z,12.59
2018-11-14T22:59:46.396Z,12.36
2018-11-14T23:02:14.935Z,12.28
2018-11-14T23:04:43.115Z,12.36
2018-11-14T23:07:11.371Z,12.39
2018-11-14T23:09:39.765Z,12.19
2018-11-14T23:12:07.744Z,12.17
2018-11-14T23:14:36.211Z,11.94
2018-11-14T23:17:04.676Z,12.15
2018-11-14T23:19:32.958Z,12.44
2018-11-14T23:22:01.020Z,12.59
2018-11-14T23:24:29.132Z,12.74
2018-11-14T23:26:57.408Z,12.76
2018-11-14T23:29:25.699Z,12.74
2018-11-14T23:31:54.003Z,12.82
2018-11-14T23:34:22.236Z,12.81
2018-11-14T23:36:50.479Z,12.58
2018-11-14T23:39:18.851Z,12.42
2018-11-14T23:41:47.286Z,12.45
2018-11-14T23:44:15.544Z,12.47
2018-11-14T23:46:43.820Z,12.54
2018-11-14T23:49:12.320Z,12.46
2018-11-14T23:51:40.776Z,12.02
2018-11-14T23:54:09.108Z,12.13
2018-11-14T23:56:37.336Z,12.28
2018-11-14T23:59:05.647Z,12.45
